createdAt,value
2022-12-13T00:01:47.207Z,17.70
2022-12-13T00:04:14.261Z,15.87
2022-12-13T00:06:44.366Z,18.77
2022-12-13T00:09:16.645Z,16.00
2022-12-13T00:11:43.616Z,16.73
2022-12-13T00:14:15.786Z,17.27
2022-12-13T00:16:48.081Z,18.10
2022-12-13T00:19:15.658Z,16.50
2022-12-13T00:21:43.898Z,16.87
2022-12-13T00:24:10.406Z,16.60
2022-12-13T00:26:37.001Z,17.00
2022-12-13T00:29:06.102Z,15.70
2022-12-13T00:34:19.956Z,18.33
2022-12-13T00:36:46.994Z,17.13
2022-12-13T00:39:17.210Z,15.50
2022-12-13T00:41:47.170Z,17.40
2022-12-13T00:44:20.007Z,16.03
2022-12-13T00:46:46.804Z,17.83
2022-12-13T00:49:16.559Z,15.23
2022-12-13T00:51:45.801Z,15.63
2022-12-13T00:54:12.317Z,16.40
2022-12-13T00:56:38.853Z,16.07
2022-12-13T00:59:05.350Z,16.83
2022-12-13T01:01:35.971Z,16.03
2022-12-13T01:04:04.468Z,16.50
2022-12-13T01:06:36.679Z,17.73
2022-12-13T01:09:05.535Z,15.57
2022-12-13T01:11:32.300Z,16.83
2022-12-13T01:13:58.834Z,17.07
2022-12-13T01:16:25.473Z,18.83
2022-12-13T01:18:52.062Z,18.67
2022-12-13T01:21:20.867Z,17.07
2022-12-13T01:23:49.393Z,16.53
2022-12-13T01:26:21.746Z,16.70
2022-12-13T01:28:48.839Z,17.00
2022-12-13T01:31:20.556Z,17.90
2022-12-13T01:33:50.690Z,15.60
2022-12-13T01:36:27.977Z,16.47
2022-12-13T01:38:58.420Z,17.40
2022-12-13T01:41:27.681Z,15.70
2022-12-13T01:44:02.969Z,16.33
2022-12-13T01:46:32.933Z,15.07
2022-12-13T01:48:59.583Z,14.77
2022-12-13T01:51:34.169Z,16.07
2022-12-13T01:54:03.546Z,16.67
2022-12-13T01:56:38.564Z,16.60
2022-12-13T01:59:08.797Z,16.97
2022-12-13T02:01:35.427Z,15.13
2022-12-13T02:04:02.147Z,15.90
2022-12-13T02:06:35.263Z,15.43
2022-12-13T02:09:04.823Z,14.07
2022-12-13T02:11:32.668Z,14.37
2022-12-13T02:13:59.165Z,15.73
2022-12-13T02:16:28.505Z,13.83
2022-12-13T02:18:54.962Z,14.43
2022-12-13T02:21:21.427Z,15.23
2022-12-13T02:24:31.811Z,14.80
2022-12-13T02:28:00.766Z,17.00
2022-12-13T02:31:05.928Z,15.00
2022-12-13T02:33:44.736Z,14.53
2022-12-13T02:36:22.061Z,13.73
2022-12-13T02:39:10.422Z,13.57
2022-12-13T02:41:54.239Z,13.57
2022-12-13T02:44:28.271Z,12.93
2022-12-13T02:47:22.118Z,13.90
2022-12-13T02:49:57.295Z,13.70
2022-12-13T02:52:27.130Z,14.03
2022-12-13T02:54:54.985Z,13.23
2022-12-13T02:57:37.055Z,14.27
2022-12-13T03:00:09.171Z,12.63
2022-12-13T03:03:00.964Z,13.73
2022-12-13T03:05:58.453Z,12.83
2022-12-13T03:08:42.008Z,12.73
2022-12-13T03:11:13.705Z,14.27
2022-12-13T03:13:57.708Z,14.47
2022-12-13T03:16:37.904Z,12.87
2022-12-13T03:19:07.780Z,12.13
2022-12-13T03:21:47.312Z,13.17
2022-12-13T03:24:17.997Z,13.30
2022-12-13T03:26:45.363Z,12.70
2022-12-13T03:29:11.978Z,12.43
2022-12-13T03:31:38.491Z,12.67
2022-12-13T03:34:05.033Z,14.13
2022-12-13T03:36:32.312Z,13.27
2022-12-13T03:38:58.909Z,12.07
2022-12-13T03:41:32.780Z,14.00
2022-12-13T03:44:07.795Z,14.37
2022-12-13T03:46:34.517Z,13.50
2022-12-13T03:49:01.689Z,12.70
2022-12-13T03:51:28.179Z,12.73
2022-12-13T03:53:57.817Z,12.70
2022-12-13T03:56:28.104Z,13.83
2022-12-13T03:58:57.358Z,14.37
2022-12-13T04:01:25.045Z,14.17
2022-12-13T04:03:51.656Z,13.77
2022-12-13T04:06:21.892Z,14.07
2022-12-13T04:08:51.570Z,14.30
2022-12-13T04:11:42.694Z,16.10
2022-12-13T04:14:11.502Z,15.53
2022-12-13T04:16:38.551Z,15.70
2022-12-13T04:19:05.202Z,16.70
2022-12-13T04:21:31.868Z,15.13
2022-12-13T04:24:01.110Z,14.63
2022-12-13T04:26:28.437Z,14.77
2022-12-13T04:28:57.588Z,16.07
2022-12-13T04:31:24.238Z,15.77
2022-12-13T04:33:51.528Z,15.97
2022-12-13T04:36:31.543Z,17.50
2022-12-13T04:39:00.954Z,17.03
2022-12-13T04:41:34.633Z,17.97
2022-12-13T04:44:01.679Z,17.47
2022-12-13T04:46:28.154Z,15.97
2022-12-13T04:48:54.651Z,17.30
2022-12-13T04:51:21.315Z,15.70
2022-12-13T04:53:47.899Z,16.40
2022-12-13T04:56:14.449Z,16.33
2022-12-13T04:58:41.044Z,15.97
2022-12-13T05:01:08.521Z,17.47
2022-12-13T05:03:35.710Z,17.53
2022-12-13T05:06:26.415Z,16.50
2022-12-13T05:09:01.020Z,16.73
2022-12-13T05:11:35.843Z,15.63
2022-12-13T05:14:02.789Z,17.40
2022-12-13T05:16:32.143Z,17.27
2022-12-13T05:19:01.642Z,15.77
2022-12-13T05:21:31.833Z,17.27
2022-12-13T05:24:01.948Z,16.83
2022-12-13T05:26:31.652Z,15.87
2022-12-13T05:29:02.034Z,15.60
2022-12-13T05:31:31.290Z,16.83
2022-12-13T05:34:01.255Z,16.83
2022-12-13T05:36:30.747Z,14.57
2022-12-13T05:38:57.340Z,14.50
2022-12-13T05:41:24.838Z,16.37
2022-12-13T05:43:51.894Z,13.93
2022-12-13T05:46:18.649Z,16.10
2022-12-13T05:48:45.458Z,15.73
2022-12-13T05:51:12.372Z,15.00
2022-12-13T05:53:41.003Z,14.13
2022-12-13T05:56:08.466Z,14.87
2022-12-13T05:58:36.592Z,16.63
2022-12-13T06:01:12.910Z,14.47
2022-12-13T06:03:40.574Z,15.37
2022-12-13T06:06:08.883Z,16.30
2022-12-13T06:08:36.437Z,14.97
2022-12-13T06:11:10.361Z,15.87
2022-12-13T06:13:42.668Z,15.50
2022-12-13T06:16:22.599Z,16.80
2022-12-13T06:18:55.895Z,14.77
2022-12-13T06:21:26.362Z,16.47
2022-12-13T06:23:52.898Z,15.70
2022-12-13T06:26:19.444Z,14.33
2022-12-13T06:28:45.933Z,13.43
2022-12-13T06:31:12.588Z,14.73
2022-12-13T06:33:39.193Z,15.90
2022-12-13T06:36:06.447Z,15.53
2022-12-13T06:38:33.036Z,16.37
2022-12-13T06:41:08.021Z,14.80
2022-12-13T06:43:34.718Z,14.90
2022-12-13T06:46:05.965Z,14.73
2022-12-13T06:48:33.432Z,13.93
2022-12-13T06:51:04.004Z,14.77
2022-12-13T06:53:35.281Z,15.07
2022-12-13T06:56:07.136Z,14.80
2022-12-13T06:58:36.949Z,16.83
2022-12-13T07:01:15.048Z,16.07
2022-12-13T07:03:50.282Z,14.83
2022-12-13T07:06:23.212Z,15.87
2022-12-13T07:08:55.596Z,15.43
2022-12-13T07:11:25.383Z,15.23
2022-12-13T07:13:53.271Z,15.10
2022-12-13T07:16:20.827Z,17.10
2022-12-13T07:18:48.169Z,15.20
2022-12-13T07:21:21.770Z,14.40
2022-12-13T07:23:54.860Z,15.03
2022-12-13T07:26:23.543Z,14.67
2022-12-13T07:28:55.067Z,15.30
2022-12-13T07:31:23.016Z,13.90
2022-12-13T07:33:50.262Z,16.50
2022-12-13T07:36:23.183Z,14.80
2022-12-13T07:38:55.124Z,15.87
2022-12-13T07:41:24.085Z,15.33
2022-12-13T07:43:55.141Z,14.07
2022-12-13T07:46:33.592Z,15.30
2022-12-13T07:49:06.798Z,14.57
2022-12-13T07:51:35.180Z,14.90
2022-12-13T07:54:06.868Z,14.30
2022-12-13T07:56:35.628Z,14.87
2022-12-13T07:59:04.562Z,15.37
2022-12-13T08:01:37.916Z,15.47
2022-12-13T08:04:07.940Z,17.77
2022-12-13T08:06:38.533Z,14.27
2022-12-13T08:09:08.429Z,13.87
2022-12-13T08:11:38.575Z,13.47
2022-12-13T08:14:07.335Z,13.27
2022-12-13T08:16:36.895Z,15.53
2022-12-13T08:19:05.923Z,14.90
2022-12-13T08:21:53.938Z,13.73
2022-12-13T08:24:21.643Z,13.17
2022-12-13T08:26:48.246Z,13.80
2022-12-13T08:29:23.038Z,13.87
2022-12-13T08:32:02.500Z,14.20
2022-12-13T08:34:29.364Z,15.23
2022-12-13T08:37:02.096Z,14.97
2022-12-13T08:39:37.640Z,14.07
2022-12-13T08:42:17.184Z,14.30
2022-12-13T08:44:52.842Z,15.50
2022-12-13T08:47:26.470Z,15.27
2022-12-13T08:50:02.015Z,15.33
2022-12-13T08:52:31.006Z,15.17
2022-12-13T08:54:57.603Z,14.37
2022-12-13T08:57:24.104Z,14.10
2022-12-13T08:59:50.686Z,13.90
2022-12-13T09:02:17.739Z,15.03
2022-12-13T09:04:44.439Z,15.67
2022-12-13T09:07:11.103Z,14.03
2022-12-13T09:09:37.763Z,14.33
2022-12-13T09:12:10.408Z,13.87
2022-12-13T09:14:38.413Z,15.27
2022-12-13T09:17:24.714Z,16.27
2022-12-13T09:19:58.473Z,14.87
2022-12-13T09:22:33.130Z,15.57
2022-12-13T09:25:02.850Z,14.77
2022-12-13T09:27:40.040Z,15.80
2022-12-13T09:30:08.596Z,15.83
2022-12-13T09:32:35.207Z,15.07
2022-12-13T09:35:04.321Z,15.47
2022-12-13T09:37:30.869Z,14.50
2022-12-13T09:39:57.476Z,14.47
2022-12-13T09:42:30.231Z,15.83
2022-12-13T09:45:04.794Z,13.03
2022-12-13T09:47:46.771Z,14.23
2022-12-13T09:50:38.529Z,13.00
2022-12-13T09:53:11.887Z,14.63
2022-12-13T09:55:49.497Z,15.03
2022-12-13T09:58:24.080Z,13.57
2022-12-13T10:00:53.459Z,15.90
2022-12-13T10:03:23.480Z,15.67
2022-12-13T10:06:24.197Z,15.27
2022-12-13T10:08:50.738Z,14.13
2022-12-13T10:11:31.959Z,15.53
2022-12-13T10:14:09.814Z,14.77
2022-12-13T10:16:37.248Z,14.97
2022-12-13T10:19:39.505Z,15.53
2022-12-13T10:22:11.615Z,14.67
2022-12-13T10:24:57.154Z,13.90
2022-12-13T10:27:29.753Z,15.20
2022-12-13T10:29:57.601Z,15.10
2022-12-13T10:32:24.224Z,13.90
2022-12-13T10:34:50.752Z,14.03
2022-12-13T10:37:23.243Z,15.50
2022-12-13T10:39:50.505Z,13.07
2022-12-13T10:42:23.691Z,15.80
2022-12-13T10:45:15.777Z,14.30
2022-12-13T10:47:49.716Z,15.73
2022-12-13T10:50:26.881Z,15.07
2022-12-13T10:52:54.583Z,15.53
2022-12-13T10:55:34.417Z,16.57
2022-12-13T10:58:07.217Z,16.10
2022-12-13T11:00:41.243Z,15.53
2022-12-13T11:03:36.187Z,16.33
2022-12-13T11:06:17.978Z,15.33
2022-12-13T11:08:44.580Z,15.33
2022-12-13T11:11:15.074Z,15.33
2022-12-13T11:13:54.250Z,16.97
2022-12-13T11:16:23.569Z,16.80
2022-12-13T11:18:56.471Z,15.80
2022-12-13T11:21:35.856Z,15.73
2022-12-13T11:24:06.139Z,18.43
2022-12-13T11:26:39.143Z,18.30
2022-12-13T11:29:30.127Z,18.37
2022-12-13T11:32:15.624Z,17.73
2022-12-13T11:35:08.266Z,15.80
2022-12-13T11:38:05.884Z,16.57
2022-12-13T11:40:38.205Z,15.03
2022-12-13T11:43:04.865Z,16.27
2022-12-13T11:46:12.932Z,15.17
2022-12-13T11:48:47.123Z,16.43
2022-12-13T11:51:18.785Z,14.90
2022-12-13T11:53:56.353Z,16.03
2022-12-13T11:56:27.545Z,16.73
2022-12-13T11:59:20.346Z,16.20
2022-12-13T12:02:05.273Z,13.77
2022-12-13T12:05:00.491Z,14.40
2022-12-13T12:07:38.349Z,13.00
2022-12-13T12:10:13.921Z,12.70
2022-12-13T12:12:45.850Z,13.10
2022-12-13T12:15:26.498Z,14.07
2022-12-13T12:17:55.311Z,15.73
2022-12-13T12:21:00.570Z,17.37
2022-12-13T12:23:52.766Z,17.43
2022-12-13T12:26:27.147Z,16.30
2022-12-13T12:29:27.697Z,18.57
2022-12-13T12:32:20.754Z,13.60
2022-12-13T12:35:15.134Z,20.63
2022-12-13T12:38:25.235Z,17.83
2022-12-13T12:43:45.245Z,18.27
2022-12-13T12:47:08.945Z,22.50
2022-12-13T12:49:46.947Z,19.37
2022-12-13T12:52:13.711Z,18.73
2022-12-13T12:54:52.589Z,18.83
2022-12-13T12:57:29.925Z,18.47
2022-12-13T13:00:05.529Z,19.53
2022-12-13T13:03:05.534Z,18.83
2022-12-13T13:05:46.519Z,17.67
2022-12-13T13:08:25.503Z,17.67
2022-12-13T13:10:53.852Z,17.17
2022-12-13T13:13:47.462Z,17.93
2022-12-13T13:16:38.915Z,15.87
2022-12-13T13:19:11.471Z,18.20
2022-12-13T13:21:47.321Z,17.53
2022-12-13T13:24:28.616Z,18.77
2022-12-13T13:27:30.974Z,19.13
2022-12-13T13:30:27.498Z,18.07
2022-12-13T13:32:56.437Z,17.47
2022-12-13T13:35:32.215Z,16.40
2022-12-13T13:38:25.974Z,16.73
2022-12-13T13:40:52.530Z,16.07
2022-12-13T13:43:32.675Z,17.93
2022-12-13T13:46:10.876Z,17.03
2022-12-13T13:48:49.628Z,18.97
2022-12-13T13:51:54.831Z,18.77
2022-12-13T13:54:42.102Z,19.73
2022-12-13T13:58:07.147Z,19.13
2022-12-13T14:00:43.843Z,17.90
2022-12-13T14:03:48.682Z,18.80
2022-12-13T14:06:49.370Z,15.97
2022-12-13T14:09:47.101Z,16.77
2022-12-13T14:12:51.147Z,17.80
2022-12-13T14:15:42.574Z,17.07
2022-12-13T14:18:53.822Z,18.27
2022-12-13T14:21:48.388Z,19.87
2022-12-13T14:24:21.423Z,17.63
2022-12-13T14:26:51.949Z,17.43
2022-12-13T14:29:31.651Z,18.33
2022-12-13T14:31:58.489Z,18.20
2022-12-13T14:34:31.023Z,18.07
2022-12-13T14:37:03.269Z,18.30
2022-12-13T14:39:31.411Z,16.23
2022-12-13T14:42:00.286Z,18.27
2022-12-13T14:44:32.316Z,17.30
2022-12-13T14:47:07.153Z,18.43
2022-12-13T14:49:49.071Z,18.07
2022-12-13T14:52:25.969Z,18.43
2022-12-13T14:54:58.138Z,17.67
2022-12-13T14:57:30.492Z,16.97
2022-12-13T14:59:59.146Z,18.20
2022-12-13T15:02:33.678Z,18.17
2022-12-13T15:05:02.218Z,19.83
2022-12-13T15:07:35.774Z,19.60
2022-12-13T15:10:15.760Z,18.43
2022-12-13T15:12:44.307Z,17.73
2022-12-13T15:15:31.883Z,19.40
2022-12-13T15:18:18.017Z,18.23
2022-12-13T15:20:46.365Z,19.73
2022-12-13T15:23:34.095Z,17.07
2022-12-13T15:26:27.633Z,17.80
2022-12-13T15:28:59.064Z,19.60
2022-12-13T15:31:25.818Z,19.60
2022-12-13T15:33:52.425Z,18.87
2022-12-13T15:36:25.822Z,17.30
2022-12-13T15:38:55.350Z,17.80
2022-12-13T15:41:31.294Z,18.43
2022-12-13T15:44:06.035Z,20.90
2022-12-13T15:46:38.833Z,18.50
2022-12-13T15:49:22.696Z,19.03
2022-12-13T15:52:04.896Z,20.47
2022-12-13T15:54:31.592Z,18.27
2022-12-13T15:57:04.487Z,19.27
2022-12-13T15:59:35.579Z,18.97
2022-12-13T16:02:03.520Z,18.50
2022-12-13T16:04:32.844Z,18.60
2022-12-13T16:07:00.797Z,19.93
2022-12-13T16:09:35.593Z,18.70
2022-12-13T16:12:06.790Z,19.37
2022-12-13T16:14:49.528Z,17.93
2022-12-13T16:17:25.883Z,18.73
2022-12-13T16:19:54.317Z,19.73
2022-12-13T16:22:24.405Z,20.30
2022-12-13T16:24:52.683Z,21.83
2022-12-13T16:27:19.287Z,21.30
2022-12-13T16:29:45.787Z,22.77
2022-12-13T16:32:12.378Z,22.80
2022-12-13T16:34:41.733Z,20.43
2022-12-13T16:37:26.124Z,21.67
2022-12-13T16:51:05.271Z,20.67
2022-12-13T16:53:32.761Z,19.90
2022-12-13T16:55:59.352Z,20.07
2022-12-13T16:58:26.334Z,19.40
2022-12-13T17:00:58.724Z,19.00
2022-12-13T17:03:26.911Z,20.50
2022-12-13T17:05:58.688Z,20.93
2022-12-13T17:08:25.636Z,19.63
2022-12-13T17:10:58.217Z,21.20
2022-12-13T17:13:26.013Z,22.47
2022-12-13T17:15:59.134Z,20.07
2022-12-13T17:18:26.501Z,22.00
2022-12-13T17:20:58.270Z,22.80
2022-12-13T17:23:26.159Z,22.67
2022-12-13T17:25:58.535Z,22.73
2022-12-13T17:28:25.655Z,21.83
2022-12-13T17:30:55.089Z,21.73
2022-12-13T17:33:22.237Z,22.50
2022-12-13T17:35:56.403Z,21.53
2022-12-13T17:38:23.235Z,20.80
2022-12-13T17:40:54.733Z,23.73
2022-12-13T17:43:31.392Z,22.50
2022-12-13T17:46:06.666Z,22.67
2022-12-13T17:48:39.732Z,22.00
2022-12-13T17:51:08.539Z,21.63
2022-12-13T17:53:36.139Z,22.70
2022-12-13T17:56:06.436Z,21.60
2022-12-13T17:58:33.722Z,19.53
2022-12-13T18:01:22.331Z,20.07
2022-12-13T18:03:55.610Z,17.93
2022-12-13T18:06:23.450Z,19.40
2022-12-13T18:08:50.543Z,21.27
2022-12-13T18:11:32.971Z,19.10
2022-12-13T18:14:01.952Z,16.20
2022-12-13T18:16:35.784Z,17.60
2022-12-13T18:19:06.164Z,16.00
2022-12-13T18:21:33.244Z,13.47
2022-12-13T18:23:59.822Z,14.50
2022-12-13T18:26:26.430Z,14.47
2022-12-13T18:28:52.971Z,12.63
2022-12-13T18:31:25.012Z,15.07
2022-12-13T18:33:53.917Z,13.00
2022-12-13T18:36:23.409Z,15.77
2022-12-13T18:38:50.067Z,11.57
2022-12-13T18:41:30.681Z,10.90
2022-12-13T18:44:05.556Z,13.50
2022-12-13T18:46:45.768Z,10.80
2022-12-13T18:49:13.379Z,11.90
2022-12-13T18:51:42.323Z,12.77
2022-12-13T18:54:09.414Z,12.73
2022-12-13T18:56:38.021Z,12.93
2022-12-13T18:59:10.754Z,11.30
2022-12-13T19:01:37.337Z,9.73
2022-12-13T19:04:06.613Z,10.50
2022-12-13T19:06:36.269Z,10.47
2022-12-13T19:09:02.790Z,10.77
2022-12-13T19:11:29.402Z,10.30
2022-12-13T19:13:56.128Z,7.90
2022-12-13T19:16:24.110Z,9.50
2022-12-13T19:18:51.023Z,9.37
2022-12-13T19:21:20.162Z,10.53
2022-12-13T19:23:56.962Z,9.40
2022-12-13T19:26:24.703Z,10.53
2022-12-13T19:28:51.224Z,9.53
2022-12-13T19:31:23.142Z,9.13
2022-12-13T19:33:56.475Z,11.60
2022-12-13T19:36:23.600Z,11.63
2022-12-13T19:38:50.228Z,9.73
2022-12-13T19:41:19.559Z,10.93
2022-12-13T19:43:52.749Z,9.83
2022-12-13T19:46:20.140Z,10.83
2022-12-13T19:48:49.955Z,12.23
2022-12-13T19:51:19.571Z,11.80
2022-12-13T19:53:46.200Z,9.50
2022-12-13T19:56:16.062Z,10.07
2022-12-13T19:58:42.592Z,11.40
2022-12-13T20:01:09.972Z,10.23
2022-12-13T20:03:53.027Z,11.03
2022-12-13T20:06:41.342Z,9.27
2022-12-13T20:09:07.830Z,10.00
2022-12-13T20:11:34.438Z,9.10
2022-12-13T20:14:00.988Z,9.37
2022-12-13T20:16:28.297Z,9.10
2022-12-13T20:18:56.996Z,10.37
2022-12-13T20:21:23.895Z,9.90
2022-12-13T20:23:50.851Z,10.20
2022-12-13T20:26:23.041Z,11.77
2022-12-13T20:28:50.574Z,14.33
2022-12-13T20:31:20.145Z,14.77
2022-12-13T20:33:49.322Z,11.53
2022-12-13T20:36:24.602Z,15.77
2022-12-13T20:38:56.376Z,12.00
2022-12-13T20:41:23.216Z,9.63
2022-12-13T20:43:54.213Z,10.43
2022-12-13T20:46:21.851Z,10.73
2022-12-13T20:48:52.125Z,9.07
2022-12-13T20:51:27.313Z,11.10
2022-12-13T20:53:55.536Z,9.63
2022-12-13T20:56:25.484Z,10.77
2022-12-13T20:58:52.238Z,10.77
2022-12-13T21:01:28.248Z,11.90
2022-12-13T21:03:55.959Z,10.20
2022-12-13T21:06:22.659Z,8.90
2022-12-13T21:08:51.869Z,9.57
2022-12-13T21:11:24.836Z,10.80
2022-12-13T21:13:54.584Z,10.20
2022-12-13T21:16:24.926Z,11.83
2022-12-13T21:19:00.777Z,10.97
2022-12-13T21:21:28.886Z,11.20
2022-12-13T21:23:56.905Z,10.50
2022-12-13T21:26:24.364Z,11.50
2022-12-13T21:28:54.982Z,10.10
2022-12-13T21:31:24.898Z,9.73
2022-12-13T21:33:54.704Z,10.47
2022-12-13T21:36:32.470Z,11.87
2022-12-13T21:39:01.443Z,9.80
2022-12-13T21:41:28.793Z,9.10
2022-12-13T21:43:55.362Z,9.30
2022-12-13T21:46:26.032Z,8.53
2022-12-13T21:48:57.686Z,9.33
2022-12-13T21:51:26.415Z,8.90
2022-12-13T21:53:54.131Z,9.53
2022-12-13T21:56:42.506Z,11.57
2022-12-13T21:59:16.850Z,12.07
2022-12-13T22:02:34.229Z,10.07
2022-12-13T22:05:00.815Z,9.40
2022-12-13T22:07:28.576Z,9.00
2022-12-13T22:09:56.326Z,9.80
2022-12-13T22:12:26.070Z,8.87
2022-12-13T22:14:53.678Z,8.47
2022-12-13T22:17:31.349Z,8.87
2022-12-13T22:20:02.604Z,9.60
2022-12-13T22:22:29.699Z,8.73
2022-12-13T22:24:56.504Z,8.87
2022-12-13T22:27:26.283Z,9.97
2022-12-13T22:29:56.154Z,9.97
2022-12-13T22:32:23.848Z,9.17
2022-12-13T22:34:54.216Z,9.40
2022-12-13T22:37:24.946Z,10.03
2022-12-13T22:39:52.008Z,8.93
2022-12-13T22:42:24.610Z,10.43
2022-12-13T22:44:52.222Z,10.90
2022-12-13T22:47:21.334Z,10.43
2022-12-13T22:49:49.193Z,13.80
2022-12-13T22:52:17.021Z,11.63
2022-12-13T22:54:43.736Z,11.43
2022-12-13T22:57:10.499Z,11.70
2022-12-13T22:59:37.381Z,10.63
2022-12-13T23:02:04.449Z,10.70
2022-12-13T23:04:33.108Z,11.67
2022-12-13T23:06:59.808Z,10.63
2022-12-13T23:09:26.328Z,10.57
2022-12-13T23:12:11.188Z,11.43
2022-12-13T23:14:37.812Z,11.60
2022-12-13T23:17:04.488Z,11.40
2022-12-13T23:19:41.562Z,10.97
2022-12-13T23:22:16.055Z,10.27
2022-12-13T23:24:42.761Z,10.73
2022-12-13T23:27:09.353Z,11.10
2022-12-13T23:29:35.909Z,11.47
2022-12-13T23:32:02.472Z,10.57
2022-12-13T23:34:29.046Z,10.30
2022-12-13T23:36:55.567Z,11.40
2022-12-13T23:39:22.190Z,9.27
2022-12-13T23:41:48.798Z,11.17
2022-12-13T23:44:15.356Z,9.83
2022-12-13T23:46:41.925Z,11.00
2022-12-13T23:49:15.407Z,10.60
2022-12-13T23:51:41.947Z,10.37
2022-12-13T23:54:08.512Z,10.37
2022-12-13T23:56:35.082Z,11.13
2022-12-13T23:59:04.037Z,12.27
